sensor_id;sensor_type;location;lat;lon;timestamp;pressure;altitude;pressure_sealevel;temperature;humidity
51333;BME280;37417;48.118;11.734;2023-07-13T00:00:01;95606.16;;;18.35;100.00
51333;BME280;37417;48.118;11.734;2023-07-13T00:02:49;95601.84;;;18.46;100.00
51333;BME280;37417;48.118;11.734;2023-07-13T00:05:34;95598.97;;;18.47;100.00
51333;BME280;37417;48.118;11.734;2023-07-13T00:08:20;95592.41;;;18.33;100.00
51333;BME280;37417;48.118;11.734;2023-07-13T00:11:06;95589.84;;;18.21;100.00
51333;BME280;37417;48.118;11.734;2023-07-13T00:13:52;95582.19;;;18.36;100.00
51333;BME280;37417;48.118;11.734;2023-07-13T00:16:39;95586.09;;;18.34;100.00
51333;BME280;37417;48.118;11.734;2023-07-13T00:19:26;95582.34;;;18.30;100.00
51333;BME280;37417;48.118;11.734;2023-07-13T00:22:12;95588.34;;;18.42;100.00
51333;BME280;37417;48.118;11.734;2023-07-13T00:24:57;95595.78;;;18.45;100.00
51333;BME280;37417;48.118;11.734;2023-07-13T00:27:43;95604.91;;;18.37;100.00
51333;BME280;37417;48.118;11.734;2023-07-13T00:30:29;95601.75;;;18.40;100.00
51333;BME280;37417;48.118;11.734;2023-07-13T00:33:15;95608.72;;;18.63;100.00
51333;BME280;37417;48.118;11.734;2023-07-13T00:36:01;95605.69;;;18.38;100.00
51333;BME280;37417;48.118;11.734;2023-07-13T00:38:47;95608.56;;;18.53;100.00
51333;BME280;37417;48.118;11.734;2023-07-13T00:41:32;95610.66;;;18.51;100.00
51333;BME280;37417;48.118;11.734;2023-07-13T00:44:20;95614.59;;;18.49;100.00
51333;BME280;37417;48.118;11.734;2023-07-13T00:47:06;95621.63;;;18.43;100.00
51333;BME280;37417;48.118;11.734;2023-07-13T00:49:52;95622.50;;;18.49;100.00
51333;BME280;37417;48.118;11.734;2023-07-13T00:52:40;95602.81;;;18.39;100.00
51333;BME280;37417;48.118;11.734;2023-07-13T00:55:27;95617.06;;;18.38;100.00
51333;BME280;37417;48.118;11.734;2023-07-13T00:58:13;95618.91;;;18.38;100.00
51333;BME280;37417;48.118;11.734;2023-07-13T01:00:58;95627.56;;;18.50;100.00
51333;BME280;37417;48.118;11.734;2023-07-13T01:03:44;95611.63;;;18.45;100.00
51333;BME280;37417;48.118;11.734;2023-07-13T01:06:32;95614.97;;;18.40;100.00
51333;BME280;37417;48.118;11.734;2023-07-13T01:09:17;95592.50;;;18.55;100.00
51333;BME280;37417;48.118;11.734;2023-07-13T01:12:03;95589.84;;;18.55;100.00
51333;BME280;37417;48.118;11.734;2023-07-13T01:14:57;95577.28;;;18.62;100.00
51333;BME280;37417;48.118;11.734;2023-07-13T01:17:43;95577.91;;;18.52;100.00
51333;BME280;37417;48.118;11.734;2023-07-13T01:20:29;95562.53;;;18.83;100.00
51333;BME280;37417;48.118;11.734;2023-07-13T01:23:15;95554.03;;;18.64;100.00
51333;BME280;37417;48.118;11.734;2023-07-13T01:26:00;95553.59;;;18.50;100.00
51333;BME280;37417;48.118;11.734;2023-07-13T01:28:46;95547.09;;;18.58;100.00
51333;BME280;37417;48.118;11.734;2023-07-13T01:31:32;95531.66;;;18.50;100.00
51333;BME280;37417;48.118;11.734;2023-07-13T01:34:17;95535.91;;;18.51;100.00
51333;BME280;37417;48.118;11.734;2023-07-13T01:37:04;95521.31;;;18.48;100.00
51333;BME280;37417;48.118;11.734;2023-07-13T01:39:50;95530.88;;;18.32;100.00
51333;BME280;37417;48.118;11.734;2023-07-13T01:42:37;95528.72;;;18.29;100.00
51333;BME280;37417;48.118;11.734;2023-07-13T01:45:22;95524.13;;;18.41;100.00
51333;BME280;37417;48.118;11.734;2023-07-13T01:48:08;95530.94;;;18.37;100.00
51333;BME280;37417;48.118;11.734;2023-07-13T01:50:54;95540.31;;;18.45;100.00
51333;BME280;37417;48.118;11.734;2023-07-13T01:53:39;95547.91;;;18.41;100.00
51333;BME280;37417;48.118;11.734;2023-07-13T01:56:25;95544.16;;;18.37;100.00
51333;BME280;37417;48.118;11.734;2023-07-13T01:59:11;95538.78;;;18.49;100.00
51333;BME280;37417;48.118;11.734;2023-07-13T02:01:56;95540.63;;;18.49;100.00
51333;BME280;37417;48.118;11.734;2023-07-13T02:04:42;95542.78;;;18.52;100.00
51333;BME280;37417;48.118;11.734;2023-07-13T02:07:28;95539.88;;;18.53;100.00
51333;BME280;37417;48.118;11.734;2023-07-13T02:10:13;95549.19;;;18.56;100.00
51333;BME280;37417;48.118;11.734;2023-07-13T02:12:59;95546.72;;;18.49;100.00
51333;BME280;37417;48.118;11.734;2023-07-13T02:15:45;95542.44;;;18.65;100.00
51333;BME280;37417;48.118;11.734;2023-07-13T02:18:30;95558.06;;;18.50;100.00
51333;BME280;37417;48.118;11.734;2023-07-13T02:21:16;95545.78;;;18.60;100.00
51333;BME280;37417;48.118;11.734;2023-07-13T02:24:02;95549.47;;;18.59;100.00
51333;BME280;37417;48.118;11.734;2023-07-13T02:26:47;95551.25;;;18.71;100.00
51333;BME280;37417;48.118;11.734;2023-07-13T02:29:33;95551.00;;;18.72;100.00
51333;BME280;37417;48.118;11.734;2023-07-13T02:32:19;95544.69;;;18.73;100.00
51333;BME280;37417;48.118;11.734;2023-07-13T02:35:05;95561.09;;;18.75;100.00
51333;BME280;37417;48.118;11.734;2023-07-13T02:37:50;95550.56;;;18.97;100.00
51333;BME280;37417;48.118;11.734;2023-07-13T02:40:36;95544.59;;;19.07;100.00
51333;BME280;37417;48.118;11.734;2023-07-13T02:43:22;95544.66;;;19.12;100.00
51333;BME280;37417;48.118;11.734;2023-07-13T02:46:07;95542.94;;;19.23;100.00
51333;BME280;37417;48.118;11.734;2023-07-13T02:48:53;95546.63;;;19.21;100.00
51333;BME280;37417;48.118;11.734;2023-07-13T02:51:39;95541.78;;;19.13;100.00
51333;BME280;37417;48.118;11.734;2023-07-13T02:54:25;95544.28;;;19.03;100.00
51333;BME280;37417;48.118;11.734;2023-07-13T02:57:10;95563.69;;;18.92;100.00
51333;BME280;37417;48.118;11.734;2023-07-13T02:59:56;95577.59;;;18.82;100.00
51333;BME280;37417;48.118;11.734;2023-07-13T03:02:42;95574.66;;;19.01;100.00
51333;BME280;37417;48.118;11.734;2023-07-13T03:05:27;95580.31;;;18.87;100.00
51333;BME280;37417;48.118;11.734;2023-07-13T03:08:13;95578.81;;;18.75;100.00
51333;BME280;37417;48.118;11.734;2023-07-13T03:11:04;95588.25;;;18.71;100.00
51333;BME280;37417;48.118;11.734;2023-07-13T03:13:50;95602.88;;;18.95;100.00
51333;BME280;37417;48.118;11.734;2023-07-13T03:16:36;95615.22;;;18.89;100.00
51333;BME280;37417;48.118;11.734;2023-07-13T03:19:21;95626.38;;;18.75;100.00
51333;BME280;37417;48.118;11.734;2023-07-13T03:22:07;95640.22;;;18.82;100.00
51333;BME280;37417;48.118;11.734;2023-07-13T03:24:55;95649.78;;;18.54;100.00
51333;BME280;37417;48.118;11.734;2023-07-13T03:27:40;95657.78;;;18.26;100.00
51333;BME280;37417;48.118;11.734;2023-07-13T03:30:26;95667.00;;;18.23;100.00
51333;BME280;37417;48.118;11.734;2023-07-13T03:33:13;95663.75;;;18.21;100.00
51333;BME280;37417;48.118;11.734;2023-07-13T03:35:59;95656.34;;;17.90;100.00
51333;BME280;37417;48.118;11.734;2023-07-13T03:38:49;95655.94;;;18.26;100.00
51333;BME280;37417;48.118;11.734;2023-07-13T03:41:36;95654.31;;;18.08;100.00
51333;BME280;37417;48.118;11.734;2023-07-13T03:44:21;95664.34;;;17.95;100.00
51333;BME280;37417;48.118;11.734;2023-07-13T03:47:07;95670.38;;;18.07;100.00
51333;BME280;37417;48.118;11.734;2023-07-13T03:49:54;95670.38;;;17.78;100.00
51333;BME280;37417;48.118;11.734;2023-07-13T03:52:40;95666.88;;;17.49;100.00
51333;BME280;37417;48.118;11.734;2023-07-13T03:55:26;95678.53;;;17.65;100.00
51333;BME280;37417;48.118;11.734;2023-07-13T03:58:26;95683.34;;;17.68;100.00
51333;BME280;37417;48.118;11.734;2023-07-13T04:01:13;95685.63;;;17.76;100.00
51333;BME280;37417;48.118;11.734;2023-07-13T04:03:59;95668.00;;;17.65;100.00
51333;BME280;37417;48.118;11.734;2023-07-13T04:06:45;95666.72;;;17.68;100.00
51333;BME280;37417;48.118;11.734;2023-07-13T04:09:30;95675.25;;;17.46;100.00
51333;BME280;37417;48.118;11.734;2023-07-13T04:12:16;95676.97;;;17.52;100.00
51333;BME280;37417;48.118;11.734;2023-07-13T04:15:02;95674.53;;;17.63;100.00
51333;BME280;37417;48.118;11.734;2023-07-13T04:17:47;95675.44;;;17.68;100.00
51333;BME280;37417;48.118;11.734;2023-07-13T04:20:33;95672.88;;;17.85;100.00
51333;BME280;37417;48.118;11.734;2023-07-13T04:23:19;95674.28;;;17.64;100.00
51333;BME280;37417;48.118;11.734;2023-07-13T04:26:05;95676.22;;;17.69;100.00
51333;BME280;37417;48.118;11.734;2023-07-13T04:28:52;95676.25;;;17.57;100.00
51333;BME280;37417;48.118;11.734;2023-07-13T04:31:37;95684.84;;;17.64;100.00
51333;BME280;37417;48.118;11.734;2023-07-13T04:34:23;95686.69;;;17.75;100.00
51333;BME280;37417;48.118;11.734;2023-07-13T04:37:09;95676.59;;;17.72;100.00
51333;BME280;37417;48.118;11.734;2023-07-13T04:39:55;95672.00;;;17.68;100.00
51333;BME280;37417;48.118;11.734;2023-07-13T04:42:41;95667.56;;;17.45;100.00
51333;BME280;37417;48.118;11.734;2023-07-13T04:45:26;95680.19;;;17.43;100.00
51333;BME280;37417;48.118;11.734;2023-07-13T04:48:12;95681.22;;;17.42;100.00
51333;BME280;37417;48.118;11.734;2023-07-13T04:50:58;95676.50;;;17.44;100.00
51333;BME280;37417;48.118;11.734;2023-07-13T04:53:44;95677.69;;;17.36;100.00
51333;BME280;37417;48.118;11.734;2023-07-13T04:56:29;95671.97;;;17.27;100.00
51333;BME280;37417;48.118;11.734;2023-07-13T04:59:15;95686.03;;;17.45;100.00
51333;BME280;37417;48.118;11.734;2023-07-13T05:02:01;95685.34;;;17.38;100.00
51333;BME280;37417;48.118;11.734;2023-07-13T05:04:48;95686.81;;;17.57;100.00
51333;BME280;37417;48.118;11.734;2023-07-13T05:07:33;95686.00;;;17.56;100.00
51333;BME280;37417;48.118;11.734;2023-07-13T05:10:20;95691.38;;;17.62;100.00
51333;BME280;37417;48.118;11.734;2023-07-13T05:13:06;95699.66;;;17.65;100.00
51333;BME280;37417;48.118;11.734;2023-07-13T05:16:02;95697.56;;;17.67;100.00
51333;BME280;37417;48.118;11.734;2023-07-13T05:18:48;95694.16;;;17.43;100.00
51333;BME280;37417;48.118;11.734;2023-07-13T05:21:34;95686.72;;;17.52;100.00
51333;BME280;37417;48.118;11.734;2023-07-13T05:24:20;95684.84;;;17.64;100.00
51333;BME280;37417;48.118;11.734;2023-07-13T05:27:06;95678.47;;;17.89;100.00
51333;BME280;37417;48.118;11.734;2023-07-13T05:29:51;95679.69;;;17.57;100.00
51333;BME280;37417;48.118;11.734;2023-07-13T05:32:37;95682.31;;;17.69;100.00
51333;BME280;37417;48.118;11.734;2023-07-13T05:35:23;95688.50;;;17.63;100.00
51333;BME280;37417;48.118;11.734;2023-07-13T05:38:08;95693.91;;;17.80;100.00
51333;BME280;37417;48.118;11.734;2023-07-13T05:40:55;95692.16;;;17.85;100.00
51333;BME280;37417;48.118;11.734;2023-07-13T05:43:41;95693.91;;;17.80;100.00
51333;BME280;37417;48.118;11.734;2023-07-13T05:46:27;95697.41;;;17.97;100.00
51333;BME280;37417;48.118;11.734;2023-07-13T05:49:13;95691.50;;;18.07;100.00
51333;BME280;37417;48.118;11.734;2023-07-13T05:51:58;95687.41;;;17.99;100.00
51333;BME280;37417;48.118;11.734;2023-07-13T05:54:44;95693.94;;;17.97;100.00
51333;BME280;37417;48.118;11.734;2023-07-13T05:57:30;95692.31;;;18.36;100.00
51333;BME280;37417;48.118;11.734;2023-07-13T06:00:16;95684.88;;;18.21;100.00
51333;BME280;37417;48.118;11.734;2023-07-13T06:03:02;95678.03;;;18.54;100.00
51333;BME280;37417;48.118;11.734;2023-07-13T06:05:48;95680.50;;;18.72;100.00
51333;BME280;37417;48.118;11.734;2023-07-13T06:08:34;95667.69;;;18.81;100.00
51333;BME280;37417;48.118;11.734;2023-07-13T06:11:25;95664.59;;;19.06;100.00
51333;BME280;37417;48.118;11.734;2023-07-13T06:14:11;95665.91;;;19.03;100.00
51333;BME280;37417;48.118;11.734;2023-07-13T06:16:57;95669.88;;;19.06;100.00
51333;BME280;37417;48.118;11.734;2023-07-13T06:19:42;95662.19;;;19.04;100.00
51333;BME280;37417;48.118;11.734;2023-07-13T06:22:28;95661.91;;;19.01;100.00
51333;BME280;37417;48.118;11.734;2023-07-13T06:25:14;95663.75;;;19.00;100.00
51333;BME280;37417;48.118;11.734;2023-07-13T06:27:59;95664.25;;;19.19;100.00
51333;BME280;37417;48.118;11.734;2023-07-13T06:30:45;95661.91;;;19.39;100.00
51333;BME280;37417;48.118;11.734;2023-07-13T06:33:31;95645.09;;;19.51;100.00
51333;BME280;37417;48.118;11.734;2023-07-13T06:36:17;95640.19;;;19.81;100.00
51333;BME280;37417;48.118;11.734;2023-07-13T06:39:02;95639.31;;;19.54;100.00
51333;BME280;37417;48.118;11.734;2023-07-13T06:41:48;95647.41;;;20.13;100.00
51333;BME280;37417;48.118;11.734;2023-07-13T06:44:34;95645.69;;;20.01;100.00
51333;BME280;37417;48.118;11.734;2023-07-13T06:47:20;95642.69;;;19.93;100.00
51333;BME280;37417;48.118;11.734;2023-07-13T06:50:06;95633.81;;;20.04;100.00
51333;BME280;37417;48.118;11.734;2023-07-13T06:52:51;95645.25;;;20.10;100.00
51333;BME280;37417;48.118;11.734;2023-07-13T06:55:39;95648.78;;;19.93;100.00
51333;BME280;37417;48.118;11.734;2023-07-13T06:58:25;95644.09;;;20.00;100.00
51333;BME280;37417;48.118;11.734;2023-07-13T07:01:10;95647.19;;;19.92;100.00
51333;BME280;37417;48.118;11.734;2023-07-13T07:03:56;95646.47;;;20.02;100.00
51333;BME280;37417;48.118;11.734;2023-07-13T07:06:42;95646.19;;;19.98;100.00
51333;BME280;37417;48.118;11.734;2023-07-13T07:09:28;95654.50;;;19.58;100.00
51333;BME280;37417;48.118;11.734;2023-07-13T07:12:15;95645.09;;;19.51;100.00
51333;BME280;37417;48.118;11.734;2023-07-13T07:15:01;95653.31;;;19.71;100.00
51333;BME280;37417;48.118;11.734;2023-07-13T07:17:47;95646.09;;;19.88;100.00
51333;BME280;37417;48.118;11.734;2023-07-13T07:20:32;95650.63;;;20.20;100.00
51333;BME280;37417;48.118;11.734;2023-07-13T07:23:18;95630.19;;;20.42;100.00
51333;BME280;37417;48.118;11.734;2023-07-13T07:26:04;95639.50;;;20.18;100.00
51333;BME280;37417;48.118;11.734;2023-07-13T07:28:50;95632.84;;;20.15;100.00
51333;BME280;37417;48.118;11.734;2023-07-13T07:31:36;95642.75;;;20.25;100.00
51333;BME280;37417;48.118;11.734;2023-07-13T07:34:22;95635.78;;;20.78;100.00
51333;BME280;37417;48.118;11.734;2023-07-13T07:37:13;95643.03;;;20.01;100.00
51333;BME280;37417;48.118;11.734;2023-07-13T07:39:59;95644.44;;;20.36;100.00
51333;BME280;37417;48.118;11.734;2023-07-13T07:42:44;95646.88;;;20.43;100.00
51333;BME280;37417;48.118;11.734;2023-07-13T07:45:30;95651.38;;;20.42;100.00
51333;BME280;37417;48.118;11.734;2023-07-13T07:48:16;95644.91;;;20.55;100.00
51333;BME280;37417;48.118;11.734;2023-07-13T07:51:01;95642.19;;;20.50;100.00
51333;BME280;37417;48.118;11.734;2023-07-13T07:53:47;95648.56;;;20.49;100.00
51333;BME280;37417;48.118;11.734;2023-07-13T07:56:34;95647.53;;;20.28;100.00
51333;BME280;37417;48.118;11.734;2023-07-13T07:59:20;95645.50;;;20.67;100.00
51333;BME280;37417;48.118;11.734;2023-07-13T08:02:06;95644.91;;;20.55;100.00
51333;BME280;37417;48.118;11.734;2023-07-13T08:04:52;95651.22;;;20.49;100.00
51333;BME280;37417;48.118;11.734;2023-07-13T08:07:39;95660.09;;;20.11;100.00
51333;BME280;37417;48.118;11.734;2023-07-13T08:10:24;95668.38;;;19.92;100.00
51333;BME280;37417;48.118;11.734;2023-07-13T08:13:10;95661.94;;;19.61;100.00
51333;BME280;37417;48.118;11.734;2023-07-13T08:15:56;95676.22;;;19.60;100.00
51333;BME280;37417;48.118;11.734;2023-07-13T08:18:41;95681.03;;;19.46;100.00
51333;BME280;37417;48.118;11.734;2023-07-13T08:21:27;95682.91;;;19.68;100.00
51333;BME280;37417;48.118;11.734;2023-07-13T08:24:14;95687.66;;;19.49;100.00
51333;BME280;37417;48.118;11.734;2023-07-13T08:27:00;95683.78;;;19.57;100.00
51333;BME280;37417;48.118;11.734;2023-07-13T08:29:47;95680.34;;;19.73;100.00
51333;BME280;37417;48.118;11.734;2023-07-13T08:32:33;95680.06;;;19.53;100.00
51333;BME280;37417;48.118;11.734;2023-07-13T08:35:19;95680.63;;;19.38;100.00
51333;BME280;37417;48.118;11.734;2023-07-13T08:38:05;95677.41;;;19.53;100.00
51333;BME280;37417;48.118;11.734;2023-07-13T08:40:55;95695.41;;;19.72;100.00
51333;BME280;37417;48.118;11.734;2023-07-13T08:43:46;95696.75;;;19.97;100.00
51333;BME280;37417;48.118;11.734;2023-07-13T08:46:36;95690.59;;;19.69;100.00
51333;BME280;37417;48.118;11.734;2023-07-13T08:49:23;95687.84;;;19.59;100.00
51333;BME280;37417;48.118;11.734;2023-07-13T08:55:40;95701.47;;;20.17;100.00
51333;BME280;37417;48.118;11.734;2023-07-13T08:58:27;95700.63;;;20.38;100.00
51333;BME280;37417;48.118;11.734;2023-07-13T09:01:22;95702.34;;;20.27;100.00
51333;BME280;37417;48.118;11.734;2023-07-13T09:04:16;95697.81;;;19.74;100.00
51333;BME280;37417;48.118;11.734;2023-07-13T09:13:37;95703.47;;;20.05;100.00
51333;BME280;37417;48.118;11.734;2023-07-13T09:16:25;95704.59;;;20.14;100.00
51333;BME280;37417;48.118;11.734;2023-07-13T09:19:23;95689.03;;;20.44;100.00
51333;BME280;37417;48.118;11.734;2023-07-13T09:22:16;95681.75;;;20.57;98.22
51333;BME280;37417;48.118;11.734;2023-07-13T09:25:20;95686.25;;;20.88;95.77
51333;BME280;37417;48.118;11.734;2023-07-13T09:28:19;95683.34;;;20.58;90.55
51333;BME280;37417;48.118;11.734;2023-07-13T09:31:15;95681.78;;;20.94;86.21
51333;BME280;37417;48.118;11.734;2023-07-13T09:34:01;95684.03;;;20.80;87.96
51333;BME280;37417;48.118;11.734;2023-07-13T09:36:47;95685.56;;;21.08;85.35
51333;BME280;37417;48.118;11.734;2023-07-13T09:39:36;95691.91;;;21.02;84.52
51333;BME280;37417;48.118;11.734;2023-07-13T09:42:22;95695.13;;;21.09;84.76
51333;BME280;37417;48.118;11.734;2023-07-13T09:45:08;95696.16;;;20.44;75.34
51333;BME280;37417;48.118;11.734;2023-07-13T09:48:07;95695.75;;;21.21;77.55
51333;BME280;37417;48.118;11.734;2023-07-13T09:50:54;95695.13;;;21.09;78.27
51333;BME280;37417;48.118;11.734;2023-07-13T09:53:44;95703.91;;;21.15;76.92
51333;BME280;37417;48.118;11.734;2023-07-13T09:56:31;95691.53;;;21.73;73.16
51333;BME280;37417;48.118;11.734;2023-07-13T09:59:21;95695.41;;;22.12;75.32
51333;BME280;37417;48.118;11.734;2023-07-13T10:02:29;95690.22;;;21.80;68.08
51333;BME280;37417;48.118;11.734;2023-07-13T10:05:15;95700.00;;;21.65;68.87
51333;BME280;37417;48.118;11.734;2023-07-13T10:08:01;95694.94;;;22.36;62.21
51333;BME280;37417;48.118;11.734;2023-07-13T10:10:53;95690.22;;;22.89;62.06
51333;BME280;37417;48.118;11.734;2023-07-13T10:13:52;95693.38;;;23.11;61.00
51333;BME280;37417;48.118;11.734;2023-07-13T10:16:42;95705.09;;;23.00;57.77
51333;BME280;37417;48.118;11.734;2023-07-13T10:19:31;95712.97;;;22.24;55.66
51333;BME280;37417;48.118;11.734;2023-07-13T10:22:31;95705.06;;;22.80;56.72
51333;BME280;37417;48.118;11.734;2023-07-13T10:25:26;95708.00;;;22.78;55.33
51333;BME280;37417;48.118;11.734;2023-07-13T10:31:12;95701.25;;;24.71;50.11
51333;BME280;37417;48.118;11.734;2023-07-13T10:33:59;95702.13;;;25.30;47.35
51333;BME280;37417;48.118;11.734;2023-07-13T10:36:46;95698.34;;;25.60;44.38
51333;BME280;37417;48.118;11.734;2023-07-13T10:39:34;95699.47;;;27.15;43.64
51333;BME280;37417;48.118;11.734;2023-07-13T10:42:33;95706.97;;;28.14;48.80
51333;BME280;37417;48.118;11.734;2023-07-13T10:45:22;95686.63;;;29.70;36.81
51333;BME280;37417;48.118;11.734;2023-07-13T10:48:12;95687.16;;;28.74;36.85
51333;BME280;37417;48.118;11.734;2023-07-13T10:50:59;95693.19;;;28.93;36.19
51333;BME280;37417;48.118;11.734;2023-07-13T10:53:47;95699.66;;;29.23;32.94
51333;BME280;37417;48.118;11.734;2023-07-13T10:56:33;95696.63;;;29.16;36.49
51333;BME280;37417;48.118;11.734;2023-07-13T10:59:24;95696.63;;;28.35;36.48
51333;BME280;37417;48.118;11.734;2023-07-13T11:02:23;95697.28;;;29.84;34.31
51333;BME280;37417;48.118;11.734;2023-07-13T11:05:29;95694.56;;;30.41;37.14
51333;BME280;37417;48.118;11.734;2023-07-13T11:08:19;95694.03;;;31.34;36.72
51333;BME280;37417;48.118;11.734;2023-07-13T11:11:36;95697.56;;;31.17;36.82
51333;BME280;37417;48.118;11.734;2023-07-13T11:17:36;95716.91;;;26.61;41.75
51333;BME280;37417;48.118;11.734;2023-07-13T11:20:23;95711.00;;;27.43;43.84
51333;BME280;37417;48.118;11.734;2023-07-13T11:23:18;95702.56;;;27.03;37.81
51333;BME280;37417;48.118;11.734;2023-07-13T11:26:04;95693.69;;;27.82;36.64
51333;BME280;37417;48.118;11.734;2023-07-13T11:28:50;95707.66;;;28.20;42.90
51333;BME280;37417;48.118;11.734;2023-07-13T11:31:36;95697.56;;;28.53;41.30
51333;BME280;37417;48.118;11.734;2023-07-13T11:34:40;95698.75;;;28.60;38.84
51333;BME280;37417;48.118;11.734;2023-07-13T11:37:28;95688.72;;;29.82;38.19
51333;BME280;37417;48.118;11.734;2023-07-13T11:40:15;95692.56;;;29.98;36.46
51333;BME280;37417;48.118;11.734;2023-07-13T11:43:01;95691.38;;;29.42;34.92
51333;BME280;37417;48.118;11.734;2023-07-13T11:45:47;95672.53;;;27.94;36.11
51333;BME280;37417;48.118;11.734;2023-07-13T11:48:34;95664.09;;;29.18;35.26
51333;BME280;37417;48.118;11.734;2023-07-13T11:51:25;95660.28;;;31.37;33.20
51333;BME280;37417;48.118;11.734;2023-07-13T11:54:28;95660.53;;;32.12;31.29
51333;BME280;37417;48.118;11.734;2023-07-13T11:57:26;95662.38;;;31.14;32.58
51333;BME280;37417;48.118;11.734;2023-07-13T12:00:16;95659.50;;;32.87;30.51
51333;BME280;37417;48.118;11.734;2023-07-13T12:03:03;95646.31;;;34.54;28.06
51333;BME280;37417;48.118;11.734;2023-07-13T12:08:43;95662.38;;;35.62;30.51
51333;BME280;37417;48.118;11.734;2023-07-13T12:11:29;95650.09;;;37.12;26.19
51333;BME280;37417;48.118;11.734;2023-07-13T12:14:16;95646.06;;;36.29;26.72
51333;BME280;37417;48.118;11.734;2023-07-13T12:17:09;95649.66;;;35.66;27.03
51333;BME280;37417;48.118;11.734;2023-07-13T12:19:57;95639.63;;;31.41;31.64
51333;BME280;37417;48.118;11.734;2023-07-13T12:22:46;95643.97;;;31.16;32.66
51333;BME280;37417;48.118;11.734;2023-07-13T12:25:32;95652.50;;;29.79;34.25
51333;BME280;37417;48.118;11.734;2023-07-13T12:28:31;95644.22;;;30.15;34.23
51333;BME280;37417;48.118;11.734;2023-07-13T12:31:29;95641.09;;;29.42;35.58
51333;BME280;37417;48.118;11.734;2023-07-13T12:34:23;95642.59;;;28.14;37.62
51333;BME280;37417;48.118;11.734;2023-07-13T12:37:11;95647.41;;;29.69;35.87
51333;BME280;37417;48.118;11.734;2023-07-13T12:39:57;95638.84;;;30.67;32.55
51333;BME280;37417;48.118;11.734;2023-07-13T12:42:43;95634.47;;;29.09;34.95
51333;BME280;37417;48.118;11.734;2023-07-13T12:45:31;95639.00;;;30.54;33.87
51333;BME280;37417;48.118;11.734;2023-07-13T12:48:17;95633.47;;;28.96;35.15
51333;BME280;37417;48.118;11.734;2023-07-13T12:51:02;95643.69;;;26.70;40.10
51333;BME280;37417;48.118;11.734;2023-07-13T12:53:51;95639.13;;;26.33;40.75
51333;BME280;37417;48.118;11.734;2023-07-13T12:56:40;95628.00;;;27.70;38.18
51333;BME280;37417;48.118;11.734;2023-07-13T12:59:29;95617.22;;;29.01;35.82
51333;BME280;37417;48.118;11.734;2023-07-13T13:02:36;95625.97;;;27.90;36.69
51333;BME280;37417;48.118;11.734;2023-07-13T13:05:22;95620.44;;;27.31;37.57
51333;BME280;37417;48.118;11.734;2023-07-13T13:08:11;95632.44;;;26.55;42.28
51333;BME280;37417;48.118;11.734;2023-07-13T13:10:57;95633.31;;;27.29;39.86
51333;BME280;37417;48.118;11.734;2023-07-13T13:13:43;95620.06;;;29.76;34.59
51333;BME280;37417;48.118;11.734;2023-07-13T13:16:33;95615.53;;;30.71;35.36
51333;BME280;37417;48.118;11.734;2023-07-13T13:19:25;95610.44;;;29.04;36.31
51333;BME280;37417;48.118;11.734;2023-07-13T13:22:11;95613.66;;;33.24;32.36
51333;BME280;37417;48.118;11.734;2023-07-13T13:24:57;95602.31;;;36.15;28.11
51333;BME280;37417;48.118;11.734;2023-07-13T13:27:45;95599.00;;;36.41;26.79
51333;BME280;37417;48.118;11.734;2023-07-13T13:30:31;95606.47;;;34.70;28.83
51333;BME280;37417;48.118;11.734;2023-07-13T13:33:19;95602.38;;;29.83;35.92
51333;BME280;37417;48.118;11.734;2023-07-13T13:36:05;95623.78;;;27.09;39.78
51333;BME280;37417;48.118;11.734;2023-07-13T13:38:50;95625.28;;;26.12;41.87
51333;BME280;37417;48.118;11.734;2023-07-13T13:41:36;95622.69;;;26.78;41.25
51333;BME280;37417;48.118;11.734;2023-07-13T13:44:22;95628.97;;;26.35;41.92
51333;BME280;37417;48.118;11.734;2023-07-13T13:47:28;95617.63;;;27.09;40.60
51333;BME280;37417;48.118;11.734;2023-07-13T13:50:17;95616.03;;;27.08;40.91
51333;BME280;37417;48.118;11.734;2023-07-13T13:53:03;95635.91;;;26.36;42.35
51333;BME280;37417;48.118;11.734;2023-07-13T13:55:50;95627.13;;;24.97;44.92
51333;BME280;37417;48.118;11.734;2023-07-13T13:58:35;95625.94;;;25.85;44.53
51333;BME280;37417;48.118;11.734;2023-07-13T14:01:22;95628.50;;;25.24;44.44
51333;BME280;37417;48.118;11.734;2023-07-13T14:04:20;95621.59;;;26.27;42.83
51333;BME280;37417;48.118;11.734;2023-07-13T14:07:07;95622.44;;;24.55;45.94
51333;BME280;37417;48.118;11.734;2023-07-13T14:09:56;95622.63;;;24.35;46.06
51333;BME280;37417;48.118;11.734;2023-07-13T14:12:44;95619.88;;;25.03;45.09
51333;BME280;37417;48.118;11.734;2023-07-13T14:15:30;95615.72;;;25.87;43.45
51333;BME280;37417;48.118;11.734;2023-07-13T14:18:19;95616.13;;;28.57;38.71
51333;BME280;37417;48.118;11.734;2023-07-13T14:21:11;95614.41;;;30.90;33.93
51333;BME280;37417;48.118;11.734;2023-07-13T14:23:58;95614.03;;;29.30;36.31
51333;BME280;37417;48.118;11.734;2023-07-13T14:26:45;95611.19;;;29.75;34.47
51333;BME280;37417;48.118;11.734;2023-07-13T14:29:31;95613.72;;;31.87;32.24
51333;BME280;37417;48.118;11.734;2023-07-13T14:32:18;95615.56;;;33.24;29.85
51333;BME280;37417;48.118;11.734;2023-07-13T14:35:04;95609.66;;;32.22;31.78
51333;BME280;37417;48.118;11.734;2023-07-13T14:37:50;95612.59;;;32.92;29.83
51333;BME280;37417;48.118;11.734;2023-07-13T14:40:36;95608.44;;;32.74;30.82
51333;BME280;37417;48.118;11.734;2023-07-13T14:43:22;95602.47;;;31.08;32.51
51333;BME280;37417;48.118;11.734;2023-07-13T14:46:22;95606.22;;;31.92;32.72